Metar Cercanos

 

LEPA - Palma De Mallorc, Spain
Distance from station: ONO 38km
Actualización: Sat, 22-Jan-2022 4:00am CET
Parcialmente nuboso
Parcialmente nuboso
 Viento del varies
Viento: varies 4 km/h
Temperatura: 5°C
Rocío: 2°C
Humedad: 81%
Barómetro: 1029 hPa
Clouds: Parcialmente nuboso
Visibility: 10 km
Cloud details: Few Clouds 914 m
Parcialmente nuboso 2103 m
2022/01/22 03:00 LEPA 220300Z VRB02KT 9999 FEW030 SCT069 05/02 Q1029 NOSIG
LEMH - Mahon/Menorca Is, Spain
Distance from station: ENE 105km
Actualización: Sat, 22-Jan-2022 4:00am CET
Muy nuboso
Muy nuboso
 Viento del N
Viento: N 19 km/h
Temperatura: 8°C
Sensación frio: 4°C
Rocío: 4°C
Humedad: 76%
Barómetro: 1028 hPa
Clouds: Muy nuboso
Visibility: 10 km
Cloud details: Few Clouds 732 m
Muy nuboso 853 m
Muy nuboso 945 m
2022/01/22 03:00 LEMH 220300Z AUTO 36010KT 9999 FEW024/// BKN028/// BKN031/// 08/04 Q1028
 
LEIB - Ibiza/Es Codola, Spain
Distance from station: OSO 165km
Actualización: Sat, 22-Jan-2022 4:00am CET
Muy nuboso
Muy nuboso
 Viento del N
Viento: N 9 km/h
Temperatura: 7°C
Sensación frio: 6°C
Rocío: 6°C
Humedad: 93%
Barómetro: 1028 hPa
Clouds: Muy nuboso
Visibility: 10 km
Cloud details: Parcialmente nuboso 853 m
Muy nuboso 975 m
Muy nuboso 1097 m
2022/01/22 03:00 LEIB 220300Z AUTO 36005KT 9999 SCT028TCU BKN032/// BKN036/// 07/06 Q1028
LEBL - Barcelona Airpor, Spain
Distance from station: NNO 225km
Actualización: Sat, 22-Jan-2022 4:00am CET
Muy nuboso
Muy nuboso
 Viento del NNO
Viento: NNO 24 km/h
Temperatura: 3°C
Sensación frio: -2°C
Rocío: -1°C
Humedad: 75%
Barómetro: 1029 hPa
Clouds: Muy nuboso
Visibility: 10 km
Cloud details: Few Clouds 732 m
Muy nuboso 1798 m
2022/01/22 03:00 LEBL 220300Z 33013KT 9999 FEW024 BKN059 03/M01 Q1029 NOSIG
 
LEVC - Valencia (civ/Mi, Spain
Distance from station: NO 188km
Actualización: Sat, 22-Jan-2022 4:00am CET
Muy nuboso
Muy nuboso
 Viento del NO
Viento: NO 4 km/h
Temperatura: 5°C
Rocío: 3°C
Humedad: 87%
Barómetro: 1029 hPa
Clouds: Muy nuboso
Visibility: 10 km
Cloud details: Muy nuboso 1219 m
2022/01/22 03:00 LEVC 220300Z 31002KT 9999 BKN040 05/03 Q1029 NOSIG
LEGE - Gerona/Costa Bra, Spain
Distance from station: N 276km
Actualización: Sat, 22-Jan-2022 4:00am CET
Despejado
Despejado
 Viento del calm
Viento: Calma
Temperatura: -2°C
Rocío: -4°C
Humedad: 86%
Barómetro: 1029 hPa
Resumen: Despejado
Visibility: greater than 10 km
2022/01/22 03:00 LEGE 220300Z 00000KT CAVOK M02/M04 Q1029
 
LEAL - Alicante/El Alte, Spain
Distance from station: OSO 344km
Actualización: Sat, 22-Jan-2022 4:00am CET
Few Clouds
Few Clouds
 Viento del N
Viento: N 11 km/h
Temperatura: 10°C
Sensación frio: 8°C
Rocío: 3°C
Humedad: 62%
Barómetro: 1028 hPa
Clouds: Few Clouds
Visibility: 10 km
Cloud details: Few Clouds 823 m
2022/01/22 03:00 LEAL 220300Z 01006KT 9999 FEW027 10/03 Q1028 NOSIG
LEAM - Almeria Airport, Spain
Distance from station: SSO 56km
Actualización: Sat, 22-Jan-2022 4:00am CET
Cubierto
Cubierto
 Viento del NNO
Viento: NNO 17 km/h
Temperatura: 11°C
Rocío: 5°C
Humedad: 67%
Barómetro: 1027 hPa
Clouds: Cubierto
Visibility: 10 km
Cloud details: Cubierto 1829 m
2022/01/22 03:00 LEAM 220300Z AUTO 34009KT 9999 OVC060 11/05 Q1027
 
LEZG - Zaragoza (mil/Ci, Spain
Distance from station: NO 431km
Actualización: Sat, 22-Jan-2022 4:00am CET
Despejado
Despejado
 Viento del O
Viento: O 15 km/h
Temperatura: 0°C
Sensación frio: -4°C
Rocío: -3°C
Humedad: 80%
Barómetro: 1031 hPa
Resumen: Despejado
Visibility: greater than 10 km
2022/01/22 03:00 LEZG 220300Z 26008KT CAVOK 00/M03 Q1031
LEMD - Madrid/Barajas, Spain
Distance from station: ONO 234km
Actualización: Sat, 22-Jan-2022 4:00am CET
Despejado
Despejado
 Viento del NNO
Viento: NNO 4 km/h
Temperatura: -2°C
Rocío: -7°C
Humedad: 69%
Barómetro: 1028 hPa
Resumen: Despejado
Visibility: greater than 10 km
2022/01/22 03:00 LEMD 220300Z 34002KT CAVOK M02/M07 Q1028 NOSIG
 
LEGR - Granada Airport, Spain
Distance from station: OSO 62km
Actualización: Sat, 22-Jan-2022 4:00am CET
Despejado
Despejado
 Viento del E
Viento: E 4 km/h
Temperatura: 0°C
Rocío: -1°C
Humedad: 93%
Barómetro: 1026 hPa
Resumen: Despejado
Visibility: greater than 10 km
2022/01/22 03:00 LEGR 220300Z AUTO 10002KT CAVOK M00/M01 Q1026
LEMG - Malaga (civ/Mil), Spain
Distance from station: OSO 227km
Actualización: Sat, 22-Jan-2022 4:00am CET
Muy nuboso
Muy nuboso
 Viento del E
Viento: E 30 km/h
Temperatura: 13°C
Rocío: 8°C
Humedad: 72%
Barómetro: 1025 hPa
Clouds: Muy nuboso
Visibility: 10 km
Cloud details: Few Clouds 762 m
Muy nuboso 1829 m
2022/01/22 03:00 LEMG 220300Z 09016KT 9999 FEW025 BKN060 13/08 Q1025 NOSIG
 
LEZL - Sevilla (civ/Mil, Spain
Distance from station: S 318km
Actualización: Sat, 22-Jan-2022 4:00am CET
Despejado
Despejado
 Viento del ENE
Viento: ENE 9 km/h
Temperatura: 6°C
Sensación frio: 4°C
Rocío: 3°C
Humedad: 81%
Barómetro: 1024 hPa
Resumen: Despejado
Visibility: greater than 10 km
2022/01/22 03:00 LEZL 220300Z AUTO 07005KT CAVOK 06/03 Q1024
LEVT - Vitoria, Spain
Distance from station: NO 226km
Actualización: Sat, 22-Jan-2022 4:00am CET
Few Clouds
Few Clouds
 Viento del NNO
Viento: NNO 6 km/h
Temperatura: -1°C
Rocío: -3°C
Humedad: 86%
Barómetro: 1031 hPa
Clouds: Few Clouds
Visibility: 10 km
Cloud details: Few Clouds 671 m
2022/01/22 03:00 LEVT 220300Z 33003KT 9999 FEW022 M01/M03 Q1031
 
LEBB - Bilbao/Sondica, Spain
Distance from station: NNO 235km
Actualización: Sat, 22-Jan-2022 4:00am CET
Parcialmente nuboso
Parcialmente nuboso
 Viento del varies
Viento: varies 2 km/h
Temperatura: 4°C
Rocío: 1°C
Humedad: 81%
Barómetro: 1034 hPa
Clouds: Parcialmente nuboso
Visibility: 10 km
Cloud details: Parcialmente nuboso 1128 m
2022/01/22 03:00 LEBB 220300Z AUTO VRB01KT 9999 SCT037 04/01 Q1034
LESO - San Sebastian/Fu, Spain
Distance from station: N 231km
Actualización: Sat, 22-Jan-2022 4:00am CET
Despejado
Despejado
 Viento del SSO
Viento: SSO 6 km/h
Temperatura: 0°C
Rocío: -1°C
Humedad: 93%
Barómetro: 1034 hPa
Resumen: Despejado
Visibility: greater than 10 km
2022/01/22 03:00 LESO 220300Z AUTO 20003KT 160V230 CAVOK M00/M01 Q1034
 
LEVD - Valladolid(Mil/C, Spain
Distance from station: ONO 239km
Actualización: Sat, 22-Jan-2022 4:00am CET
Despejado
Despejado
 Viento del ENE
Viento: ENE 26 km/h
Temperatura: -3°C
Sensación frio: -9°C
Rocío: -5°C
Humedad: 86%
Barómetro: 1027 hPa
Resumen: Despejado
Visibility: greater than 10 km
2022/01/22 03:00 LEVD 220300Z AUTO 06014KT CAVOK M03/M05 Q1027
LESA - Salamanca (civ/M, Spain
Distance from station: ONO 349km
Actualización: Sat, 22-Jan-2022 4:00am CET
Despejado
Despejado
 Viento del ENE
Viento: ENE 17 km/h
Temperatura: -3°C
Sensación frio: -8°C
Rocío: -6°C
Humedad: 80%
Barómetro: 1027 hPa
Resumen: Despejado
Visibility: greater than 10 km
2022/01/22 03:00 LESA 220300Z AUTO 07009KT CAVOK M03/M06 Q1027
 
LEXJ - Santander/Paraya, Spain
Distance from station: NNO 247km
Actualización: Sat, 22-Jan-2022 4:00am CET
Cubierto
Cubierto
 Viento del SE
Viento: SE 6 km/h
Temperatura: 6°C
Rocío: 1°C
Humedad: 71%
Barómetro: 1034 hPa
Clouds: Cubierto
Visibility: 10 km
Cloud details: Cubierto 1250 m
2022/01/22 03:00 LEXJ 220300Z AUTO 13003KT 9999 OVC041 06/01 Q1034
LEAS - Asturias/Aviles, Spain
Distance from station: NO 214km
Actualización: Sat, 22-Jan-2022 4:00am CET
Cubierto
Cubierto
 Viento del E
Viento: E 17 km/h
Temperatura: 7°C
Sensación frio: 4°C
Rocío: 1°C
Humedad: 66%
Barómetro: 1032 hPa
Clouds: Cubierto
Visibility: 10 km
Cloud details: Cubierto 1097 m
2022/01/22 03:00 LEAS 220300Z AUTO 10009KT 070V160 9999 OVC036 07/01 Q1032
 
LECO - La Coruna/Alvedr, Spain
Distance from station: ONO 222km
Actualización: Sat, 22-Jan-2022 4:00am CET
Despejado
Despejado
 Viento del varies
Viento: varies 2 km/h
Temperatura: 6°C
Rocío: -1°C
Humedad: 61%
Barómetro: 1029 hPa
Resumen: Despejado
Visibility: greater than 10 km
2022/01/22 03:00 LECO 220300Z AUTO VRB01KT CAVOK 06/M01 Q1029
LEVX - Vigo/Peinador, Spain
Distance from station: O 214km
Actualización: Sat, 22-Jan-2022 4:00am CET
Despejado
Despejado
 Viento del ENE
Viento: ENE 11 km/h
Temperatura: 5°C
Sensación frio: 2°C
Rocío: -2°C
Humedad: 61%
Barómetro: 1026 hPa
Resumen: Despejado
Visibility: greater than 10 km
2022/01/22 03:00 LEVX 220300Z 07006KT 010V100 CAVOK 05/M02 Q1026 NOSIG